createdAt,value
2023-03-06T00:00:49.144Z,5.97
2023-03-06T00:03:18.360Z,6.03
2023-03-06T00:05:47.817Z,6.47
2023-03-06T00:08:16.981Z,7.05
2023-03-06T00:10:47.382Z,7.85
2023-03-06T00:13:19.025Z,7.00
2023-03-06T00:15:49.565Z,7.63
2023-03-06T00:18:18.750Z,8.27
2023-03-06T00:20:47.865Z,7.15
2023-03-06T00:23:16.942Z,7.38
2023-03-06T00:25:47.757Z,5.88
2023-03-06T00:28:17.827Z,6.35
2023-03-06T00:30:47.584Z,6.03
2023-03-06T00:33:16.671Z,6.60
2023-03-06T00:35:45.776Z,6.10
2023-03-06T00:38:15.025Z,6.95
2023-03-06T00:40:44.335Z,6.53
2023-03-06T00:43:15.220Z,6.57
2023-03-06T00:45:44.615Z,6.20
2023-03-06T00:48:13.677Z,6.32
2023-03-06T00:50:42.827Z,6.40
2023-03-06T00:53:13.380Z,6.70
2023-03-06T00:55:46.131Z,6.60
2023-03-06T00:58:16.689Z,6.82
2023-03-06T01:00:48.522Z,6.93
2023-03-06T01:03:17.992Z,6.72
2023-03-06T01:05:47.128Z,7.10
2023-03-06T01:08:16.164Z,7.22
2023-03-06T01:10:45.318Z,7.95
2023-03-06T01:13:14.409Z,7.82
2023-03-06T01:15:44.790Z,7.70
2023-03-06T01:18:13.911Z,7.47
2023-03-06T01:20:43.239Z,7.75
2023-03-06T01:23:12.276Z,8.00
2023-03-06T01:25:41.273Z,9.05
2023-03-06T01:28:10.332Z,8.45
2023-03-06T01:30:39.420Z,8.90
2023-03-06T01:33:10.042Z,9.13
2023-03-06T01:35:39.700Z,9.40
2023-03-06T01:38:08.866Z,9.13
2023-03-06T01:40:39.432Z,9.50
2023-03-06T01:43:13.029Z,9.40
2023-03-06T01:46:23.719Z,9.93
2023-03-06T01:48:57.753Z,9.80
2023-03-06T01:51:31.337Z,9.82
2023-03-06T01:54:03.533Z,10.07
2023-03-06T01:56:32.991Z,10.10
2023-03-06T01:59:02.536Z,10.52
2023-03-06T02:01:33.443Z,9.77
2023-03-06T02:04:04.082Z,9.73
2023-03-06T02:06:34.865Z,10.05
2023-03-06T02:09:07.640Z,9.60
2023-03-06T02:14:05.633Z,8.75
2023-03-06T02:16:35.372Z,8.65
2023-03-06T02:19:08.707Z,9.00
2023-03-06T02:21:39.062Z,8.82
2023-03-06T02:24:29.122Z,8.63
2023-03-06T02:27:00.777Z,8.60
2023-03-06T02:29:31.262Z,8.75
2023-03-06T02:32:03.360Z,9.35
2023-03-06T02:34:55.111Z,9.18
2023-03-06T02:37:25.762Z,8.73
2023-03-06T02:40:02.995Z,9.77
2023-03-06T02:42:33.454Z,9.43
2023-03-06T02:45:04.957Z,9.30
2023-03-06T02:47:34.008Z,9.30
2023-03-06T02:50:03.058Z,8.80
2023-03-06T02:52:34.261Z,8.68
2023-03-06T02:55:05.242Z,9.48
2023-03-06T02:57:35.665Z,9.57
2023-03-06T03:02:34.684Z,8.27
2023-03-06T03:05:03.846Z,8.65
2023-03-06T03:07:33.443Z,9.07
2023-03-06T03:10:03.395Z,9.02
2023-03-06T03:12:33.839Z,9.65
2023-03-06T03:15:04.444Z,10.35
2023-03-06T03:17:38.487Z,10.63
2023-03-06T03:20:10.371Z,10.57
2023-03-06T03:22:39.441Z,10.20
2023-03-06T03:25:09.244Z,11.30
2023-03-06T03:27:39.017Z,11.50
2023-03-06T03:30:11.924Z,11.57
2023-03-06T03:32:41.696Z,10.50
2023-03-06T03:35:12.357Z,10.40
2023-03-06T03:37:42.940Z,10.82
2023-03-06T03:40:13.188Z,9.73
2023-03-06T03:42:42.215Z,10.52
2023-03-06T03:45:13.953Z,10.27
2023-03-06T03:50:14.388Z,9.95
2023-03-06T03:52:43.918Z,10.52
2023-03-06T03:55:14.138Z,11.57
2023-03-06T03:57:44.873Z,11.60
2023-03-06T04:00:18.065Z,11.97
2023-03-06T04:02:59.524Z,10.82
2023-03-06T04:05:36.126Z,10.27
2023-03-06T04:08:08.029Z,9.98
2023-03-06T04:10:39.984Z,9.85
2023-03-06T04:13:11.014Z,9.95
2023-03-06T04:15:45.637Z,9.38
2023-03-06T04:18:18.128Z,9.48
2023-03-06T04:20:48.652Z,8.82
2023-03-06T04:23:18.735Z,9.35
2023-03-06T04:25:48.464Z,9.10
2023-03-06T04:28:18.324Z,8.43
2023-03-06T04:30:48.917Z,7.90
2023-03-06T04:33:19.364Z,8.05
2023-03-06T04:35:48.530Z,7.50
2023-03-06T04:38:24.674Z,6.78
2023-03-06T04:40:53.789Z,6.82
2023-03-06T04:43:22.898Z,6.70
2023-03-06T04:45:53.408Z,7.05
2023-03-06T04:48:22.387Z,6.90
2023-03-06T04:50:51.412Z,7.20
2023-03-06T04:53:21.427Z,7.28
2023-03-06T04:55:50.427Z,7.72
2023-03-06T04:58:19.669Z,7.88
2023-03-06T05:00:48.795Z,6.95
2023-03-06T05:03:19.225Z,7.22
2023-03-06T05:05:48.322Z,7.55
2023-03-06T05:08:18.353Z,7.55
2023-03-06T05:10:47.747Z,7.32
2023-03-06T05:13:16.760Z,7.43
2023-03-06T05:15:45.750Z,6.88
2023-03-06T05:18:14.741Z,7.05
2023-03-06T05:20:45.273Z,6.75
2023-03-06T05:23:14.558Z,7.10
2023-03-06T05:25:44.212Z,6.93
2023-03-06T05:28:13.249Z,7.90
2023-03-06T05:30:42.302Z,7.45
2023-03-06T05:33:11.643Z,8.20
2023-03-06T05:35:40.721Z,8.45
2023-03-06T05:38:11.206Z,7.85
2023-03-06T05:40:42.301Z,6.85
2023-03-06T05:43:12.025Z,7.45
2023-03-06T05:45:41.859Z,6.72
2023-03-06T05:48:12.175Z,6.07
2023-03-06T05:50:41.322Z,6.63
2023-03-06T05:53:12.418Z,6.55
2023-03-06T05:58:10.424Z,6.38
2023-03-06T06:00:39.407Z,6.07
2023-03-06T06:03:08.427Z,6.22
2023-03-06T06:05:40.577Z,6.40
2023-03-06T06:08:13.046Z,6.82
2023-03-06T06:10:42.076Z,6.93
2023-03-06T06:13:12.131Z,7.35
2023-03-06T06:15:41.178Z,6.13
2023-03-06T06:18:10.298Z,6.13
2023-03-06T06:20:39.758Z,5.60
2023-03-06T06:23:08.966Z,5.45
2023-03-06T06:25:39.694Z,5.15
2023-03-06T06:28:08.849Z,4.50
2023-03-06T06:30:38.335Z,4.10
2023-03-06T06:33:07.479Z,4.63
2023-03-06T06:35:38.033Z,4.22
2023-03-06T06:38:07.073Z,4.70
2023-03-06T06:40:36.588Z,4.32
2023-03-06T06:43:09.377Z,4.88
2023-03-06T06:45:39.693Z,5.25
2023-03-06T06:48:08.821Z,4.57
2023-03-06T06:50:37.905Z,5.43
2023-03-06T06:53:07.043Z,4.82
2023-03-06T06:55:36.067Z,5.00
2023-03-06T06:58:05.400Z,5.50
2023-03-06T07:00:35.817Z,5.90
2023-03-06T07:03:05.073Z,5.88
2023-03-06T07:05:36.763Z,6.07
2023-03-06T07:08:05.951Z,5.80
2023-03-06T07:10:35.717Z,6.97
2023-03-06T07:13:04.796Z,6.80
2023-03-06T07:15:35.290Z,7.50
2023-03-06T07:18:04.363Z,7.10
2023-03-06T07:20:33.381Z,6.28
2023-03-06T07:23:02.448Z,6.00
2023-03-06T07:25:31.507Z,5.60
2023-03-06T07:28:07.757Z,5.43
2023-03-06T07:30:38.340Z,5.25
2023-03-06T07:33:07.382Z,4.47
2023-03-06T07:35:36.877Z,5.00
2023-03-06T07:38:05.926Z,4.35
2023-03-06T07:40:35.026Z,4.45
2023-03-06T07:43:18.605Z,3.55
2023-03-06T07:45:59.687Z,3.95
2023-03-06T07:48:29.000Z,3.50
2023-03-06T07:50:59.628Z,3.83
2023-03-06T07:53:29.004Z,4.07
2023-03-06T07:55:58.195Z,4.25
2023-03-06T07:58:29.678Z,4.43
2023-03-06T08:01:04.948Z,4.03
2023-03-06T08:03:34.402Z,4.05
2023-03-06T08:06:08.464Z,4.43
2023-03-06T08:08:39.341Z,4.35
2023-03-06T08:11:08.933Z,4.47
2023-03-06T08:13:39.645Z,5.00
2023-03-06T08:16:10.289Z,5.60
2023-03-06T08:18:39.798Z,4.45
2023-03-06T08:21:10.571Z,4.35
2023-03-06T08:23:40.432Z,4.50
2023-03-06T08:26:12.277Z,4.60
2023-03-06T08:28:42.194Z,4.63
2023-03-06T08:31:14.301Z,4.95
2023-03-06T08:33:43.362Z,5.25
2023-03-06T08:36:12.385Z,5.43
2023-03-06T08:38:41.448Z,6.05
2023-03-06T08:41:10.500Z,5.50
2023-03-06T08:43:40.302Z,5.80
2023-03-06T08:46:09.295Z,5.55
2023-03-06T08:48:40.071Z,4.40
2023-03-06T08:51:10.258Z,4.75
2023-03-06T08:53:44.000Z,3.83
2023-03-06T08:56:20.679Z,3.78
2023-03-06T08:58:50.210Z,3.83
2023-03-06T09:01:22.493Z,3.30
2023-03-06T09:03:55.576Z,3.00
2023-03-06T09:06:25.756Z,3.10
2023-03-06T09:08:55.862Z,3.22
2023-03-06T09:11:27.707Z,3.30
2023-03-06T09:13:57.056Z,2.80
2023-03-06T09:16:26.641Z,3.13
2023-03-06T09:18:57.959Z,3.15
2023-03-06T09:23:57.383Z,3.60
2023-03-06T09:26:39.444Z,3.55
2023-03-06T09:29:12.887Z,3.65
2023-03-06T09:31:42.094Z,3.92
2023-03-06T09:34:12.547Z,4.35
2023-03-06T09:36:55.514Z,4.60
2023-03-06T09:39:26.269Z,4.72
2023-03-06T09:41:56.945Z,3.72
2023-03-06T09:44:28.666Z,3.42
2023-03-06T09:47:27.570Z,3.10
2023-03-06T09:50:15.401Z,2.90
2023-03-06T09:52:53.582Z,2.50
2023-03-06T09:55:27.188Z,2.40
2023-03-06T09:58:00.715Z,1.88
2023-03-06T10:00:35.447Z,1.92
2023-03-06T10:03:17.219Z,1.83
2023-03-06T10:05:51.257Z,1.55
2023-03-06T10:08:26.224Z,1.67
2023-03-06T10:11:02.591Z,1.58
2023-03-06T10:13:42.357Z,1.83
2023-03-06T10:16:24.555Z,1.92
2023-03-06T10:18:54.982Z,2.00
2023-03-06T10:21:39.718Z,2.43
2023-03-06T10:24:20.439Z,2.53
2023-03-06T10:26:53.957Z,2.33
2023-03-06T10:29:56.403Z,2.92
2023-03-06T10:32:47.455Z,3.05
2023-03-06T10:35:20.666Z,3.75
2023-03-06T10:37:51.266Z,4.00
2023-03-06T10:40:22.548Z,3.90
2023-03-06T10:45:48.513Z,4.60
2023-03-06T10:48:21.997Z,3.97
2023-03-06T10:50:56.598Z,4.43
2023-03-06T10:53:29.143Z,4.28
2023-03-06T10:56:00.788Z,5.55
2023-03-06T10:58:32.325Z,5.75
2023-03-06T11:01:05.023Z,5.40
2023-03-06T11:03:34.423Z,6.97
2023-03-06T11:06:13.258Z,7.00
2023-03-06T11:08:45.642Z,5.90
2023-03-06T11:11:22.429Z,6.30
2023-03-06T11:14:00.180Z,6.25
2023-03-06T11:16:31.559Z,6.28
2023-03-06T11:19:04.065Z,6.20
2023-03-06T11:21:35.067Z,6.05
2023-03-06T11:24:09.826Z,6.40
2023-03-06T11:26:51.138Z,6.03
2023-03-06T11:29:38.866Z,6.30
2023-03-06T11:32:15.979Z,6.00
2023-03-06T11:34:50.702Z,5.57
2023-03-06T11:37:31.753Z,5.95
2023-03-06T11:40:13.062Z,4.50
2023-03-06T11:42:45.524Z,4.53
2023-03-06T11:45:26.138Z,3.67
2023-03-06T11:48:05.005Z,3.53
2023-03-06T11:50:37.998Z,3.83
2023-03-06T11:53:12.395Z,3.80
2023-03-06T11:55:56.151Z,4.00
2023-03-06T11:59:02.294Z,3.88
2023-03-06T12:01:36.864Z,3.83
2023-03-06T12:04:33.042Z,3.40
2023-03-06T12:07:13.105Z,3.05
2023-03-06T12:09:47.760Z,3.30
2023-03-06T12:12:33.136Z,3.30
2023-03-06T12:15:22.320Z,3.25
2023-03-06T12:18:14.551Z,3.72
2023-03-06T12:20:58.008Z,3.08
2023-03-06T12:23:49.216Z,3.20
2023-03-06T12:26:34.372Z,3.42
2023-03-06T12:29:17.730Z,3.75
2023-03-06T12:32:02.487Z,3.85
2023-03-06T12:34:47.727Z,3.35
2023-03-06T12:37:24.054Z,3.22
2023-03-06T12:40:11.096Z,3.30
2023-03-06T12:43:04.613Z,3.05
2023-03-06T12:45:37.115Z,2.85
2023-03-06T12:48:12.798Z,2.45
2023-03-06T12:50:44.576Z,2.63
2023-03-06T12:53:17.407Z,2.72
2023-03-06T12:55:48.559Z,2.58
2023-03-06T12:58:36.102Z,2.85
2023-03-06T13:01:10.724Z,2.80
2023-03-06T13:03:57.539Z,2.78
2023-03-06T13:06:56.016Z,2.90
2023-03-06T13:09:32.861Z,2.50
2023-03-06T13:12:17.312Z,2.75
2023-03-06T13:14:58.686Z,3.40
2023-03-06T13:17:35.612Z,2.97
2023-03-06T13:20:29.300Z,2.60
2023-03-06T13:22:59.010Z,2.50
2023-03-06T13:25:50.670Z,3.65
2023-03-06T13:28:40.081Z,4.28
2023-03-06T13:31:21.361Z,4.80
2023-03-06T13:33:59.592Z,6.03
2023-03-06T13:36:30.644Z,5.63
2023-03-06T13:39:08.637Z,4.53
2023-03-06T13:41:58.608Z,3.83
2023-03-06T13:44:51.158Z,3.50
2023-03-06T13:48:21.083Z,5.30
2023-03-06T13:50:47.403Z,2.03
2023-03-06T13:53:47.783Z,1.25
2023-03-06T13:56:45.127Z,3.00
2023-03-06T13:59:42.463Z,2.08
2023-03-06T14:02:32.784Z,1.20
2023-03-06T14:05:03.668Z,1.50
2023-03-06T14:07:36.424Z,1.77
2023-03-06T14:10:22.796Z,2.15
2023-03-06T14:13:07.767Z,1.90
2023-03-06T14:15:44.520Z,1.90
2023-03-06T14:18:25.120Z,2.15
2023-03-06T14:20:58.780Z,2.07
2023-03-06T14:23:33.437Z,2.20
2023-03-06T14:26:15.256Z,2.50
2023-03-06T14:28:46.185Z,1.80
2023-03-06T14:31:19.140Z,2.25
2023-03-06T14:33:53.337Z,2.47
2023-03-06T14:36:24.309Z,2.55
2023-03-06T14:38:57.959Z,2.33
2023-03-06T14:41:28.695Z,2.05
2023-03-06T14:44:19.716Z,2.40
2023-03-06T14:46:50.492Z,2.38
2023-03-06T14:49:20.920Z,2.33
2023-03-06T14:51:52.097Z,2.05
2023-03-06T14:54:25.804Z,2.88
2023-03-06T14:56:58.273Z,1.80
2023-03-06T14:59:30.145Z,1.90
2023-03-06T15:02:02.332Z,1.70
2023-03-06T15:04:36.734Z,1.95
2023-03-06T15:07:11.360Z,2.30
2023-03-06T15:09:46.537Z,1.85
2023-03-06T15:12:38.721Z,2.22
2023-03-06T15:15:29.728Z,1.67
2023-03-06T15:18:01.841Z,2.28
2023-03-06T15:20:46.671Z,2.30
2023-03-06T15:23:19.303Z,1.98
2023-03-06T15:25:58.688Z,2.28
2023-03-06T15:28:34.574Z,1.90
2023-03-06T15:31:20.333Z,1.70
2023-03-06T15:34:23.655Z,1.83
2023-03-06T15:36:57.681Z,1.60
2023-03-06T15:39:29.233Z,1.90
2023-03-06T15:42:00.174Z,2.13
2023-03-06T15:44:31.542Z,2.50
2023-03-06T15:47:08.711Z,2.50
2023-03-06T15:49:38.775Z,3.00
2023-03-06T15:52:08.403Z,2.80
2023-03-06T15:54:38.050Z,4.32
2023-03-06T15:57:19.341Z,4.60
2023-03-06T15:59:48.413Z,3.35
2023-03-06T16:02:19.716Z,3.63
2023-03-06T16:04:49.581Z,3.80
2023-03-06T16:07:18.980Z,4.22
2023-03-06T16:09:48.041Z,4.63
2023-03-06T16:12:20.412Z,5.53
2023-03-06T16:14:50.469Z,7.85
2023-03-06T16:17:22.308Z,4.63
2023-03-06T16:19:51.461Z,12.25
2023-03-06T16:22:20.552Z,7.03
2023-03-06T16:24:49.701Z,7.65
2023-03-06T16:27:20.348Z,6.50
2023-03-06T16:29:49.399Z,6.75
2023-03-06T16:32:18.436Z,4.10
2023-03-06T16:34:47.549Z,3.53
2023-03-06T16:37:18.365Z,2.55
2023-03-06T16:39:47.394Z,4.63
2023-03-06T16:42:17.701Z,3.60
2023-03-06T16:44:48.136Z,3.10
2023-03-06T16:47:17.820Z,2.73
2023-03-06T16:49:46.986Z,3.03
2023-03-06T16:52:16.340Z,2.30
2023-03-06T16:54:45.510Z,2.67
2023-03-06T16:57:15.874Z,3.00
2023-03-06T16:59:45.185Z,4.17
2023-03-06T17:02:15.766Z,3.67
2023-03-06T17:04:45.003Z,4.90
2023-03-06T17:07:14.050Z,5.55
2023-03-06T17:09:43.334Z,4.65
2023-03-06T17:12:12.361Z,6.28
2023-03-06T17:14:41.361Z,9.48
2023-03-06T17:17:13.025Z,4.78
2023-03-06T17:19:47.263Z,3.90
2023-03-06T17:22:18.144Z,3.30
2023-03-06T17:24:50.033Z,3.60
2023-03-06T17:27:20.143Z,3.92
2023-03-06T17:29:49.429Z,3.75
2023-03-06T17:32:18.777Z,4.60
2023-03-06T17:34:49.206Z,12.50
2023-03-06T17:37:18.414Z,14.77
2023-03-06T17:39:47.625Z,17.83
2023-03-06T17:42:17.490Z,17.85
2023-03-06T17:44:46.586Z,33.60
2023-03-06T17:47:15.689Z,32.28
2023-03-06T17:49:44.919Z,9.70
2023-03-06T17:52:15.485Z,15.52
2023-03-06T17:54:44.924Z,5.72
2023-03-06T17:57:15.521Z,5.60
2023-03-06T17:59:48.514Z,17.40
2023-03-06T18:02:20.046Z,5.40
2023-03-06T18:04:49.318Z,6.70
2023-03-06T18:07:19.853Z,6.90
2023-03-06T18:09:49.078Z,7.43
2023-03-06T18:12:18.462Z,9.48
2023-03-06T18:14:48.684Z,8.57
2023-03-06T18:17:17.827Z,9.60
2023-03-06T18:19:46.967Z,11.85
2023-03-06T18:22:16.016Z,13.70
2023-03-06T18:24:50.435Z,13.43
2023-03-06T18:27:20.821Z,16.52
2023-03-06T18:29:52.212Z,17.10
2023-03-06T18:32:21.283Z,13.32
2023-03-06T18:34:50.911Z,10.80
2023-03-06T18:37:20.048Z,15.82
2023-03-06T18:39:50.469Z,16.10
2023-03-06T18:42:19.655Z,17.08
2023-03-06T18:44:48.903Z,38.10
2023-03-06T18:47:18.141Z,21.30
2023-03-06T18:49:47.249Z,31.67
2023-03-06T18:52:16.317Z,49.53
2023-03-06T18:54:45.769Z,49.28
2023-03-06T18:57:18.808Z,12.15
2023-03-06T18:59:48.402Z,41.97
2023-03-06T19:02:17.596Z,19.17
2023-03-06T19:04:46.888Z,10.93
2023-03-06T19:07:16.191Z,11.82
2023-03-06T19:09:54.800Z,11.38
2023-03-06T19:12:25.581Z,14.90
2023-03-06T19:14:54.603Z,12.77
2023-03-06T19:17:25.011Z,10.57
2023-03-06T19:19:55.127Z,8.65
2023-03-06T19:22:26.370Z,4.65
2023-03-06T19:24:55.413Z,4.22
2023-03-06T19:27:25.907Z,6.63
2023-03-06T19:29:54.920Z,10.45
2023-03-06T19:32:24.041Z,6.07
2023-03-06T19:34:54.517Z,6.72
2023-03-06T19:37:23.909Z,7.22
2023-03-06T19:39:53.018Z,11.10
2023-03-06T19:42:22.046Z,8.30
2023-03-06T19:44:52.477Z,6.90
2023-03-06T19:47:21.511Z,9.23
2023-03-06T19:49:50.641Z,8.15
2023-03-06T19:52:19.744Z,7.65
2023-03-06T19:54:48.715Z,6.28
2023-03-06T19:57:17.916Z,10.55
2023-03-06T19:59:51.296Z,8.02
2023-03-06T20:02:26.622Z,6.80
2023-03-06T20:04:56.182Z,8.68
2023-03-06T20:07:25.739Z,6.20
2023-03-06T20:09:57.209Z,6.90
2023-03-06T20:12:26.304Z,6.80
2023-03-06T20:14:55.465Z,7.47
2023-03-06T20:17:26.058Z,7.20
2023-03-06T20:19:55.265Z,7.40
2023-03-06T20:22:24.341Z,7.10
2023-03-06T20:24:53.555Z,7.80
2023-03-06T20:27:22.545Z,6.07
2023-03-06T20:29:51.569Z,5.38
2023-03-06T20:32:20.678Z,6.40
2023-03-06T20:34:51.161Z,7.70
2023-03-06T20:37:20.244Z,11.93
2023-03-06T20:39:49.419Z,7.57
2023-03-06T20:42:18.724Z,6.28
2023-03-06T20:44:49.248Z,6.72
2023-03-06T20:47:18.536Z,7.35
2023-03-06T20:49:47.799Z,5.13
2023-03-06T20:52:19.641Z,5.20
2023-03-06T20:54:48.715Z,3.70
2023-03-06T20:57:17.818Z,4.10
2023-03-06T20:59:46.878Z,4.35
2023-03-06T21:02:16.024Z,4.95
2023-03-06T21:04:45.125Z,4.68
2023-03-06T21:07:14.227Z,4.30
2023-03-06T21:09:44.648Z,4.95
2023-03-06T21:12:13.681Z,3.85
2023-03-06T21:14:42.752Z,3.90
2023-03-06T21:17:13.840Z,6.05
2023-03-06T21:22:11.905Z,6.18
2023-03-06T21:24:41.082Z,4.82
2023-03-06T21:27:11.519Z,4.53
2023-03-06T21:29:40.596Z,4.70
2023-03-06T21:32:09.655Z,5.60
2023-03-06T21:34:38.714Z,5.38
2023-03-06T21:37:07.808Z,5.43
2023-03-06T21:39:37.334Z,5.43
2023-03-06T21:42:06.578Z,5.43
2023-03-06T21:44:37.088Z,5.30
2023-03-06T21:47:06.784Z,5.03
2023-03-06T21:49:35.799Z,6.10
2023-03-06T21:52:05.118Z,12.80
2023-03-06T21:54:34.265Z,5.90
2023-03-06T21:57:03.253Z,5.57
2023-03-06T21:59:32.254Z,6.55
2023-03-06T22:02:02.659Z,9.63
2023-03-06T22:04:31.813Z,7.47
2023-03-06T22:07:01.015Z,6.93
2023-03-06T22:09:30.000Z,8.30
2023-03-06T22:11:59.139Z,5.15
2023-03-06T22:14:28.265Z,6.25
2023-03-06T22:16:57.521Z,6.07
2023-03-06T22:19:28.365Z,6.25
2023-03-06T22:21:57.479Z,5.80
2023-03-06T22:24:26.589Z,6.35
2023-03-06T22:26:55.692Z,6.15
2023-03-06T22:29:24.887Z,5.85
2023-03-06T22:31:54.100Z,7.38
2023-03-06T22:34:23.158Z,8.02
2023-03-06T22:36:53.659Z,6.50
2023-03-06T22:39:22.747Z,5.97
2023-03-06T22:41:51.865Z,6.07
2023-03-06T22:44:21.228Z,5.70
2023-03-06T22:46:51.808Z,5.00
2023-03-06T22:49:20.931Z,5.18
2023-03-06T22:51:50.092Z,3.83
2023-03-06T22:54:20.626Z,3.50
2023-03-06T22:56:49.700Z,3.53
2023-03-06T22:59:18.709Z,4.60
2023-03-06T23:01:47.788Z,3.60
2023-03-06T23:04:17.000Z,3.58
2023-03-06T23:06:47.032Z,3.20
2023-03-06T23:09:18.295Z,2.83
2023-03-06T23:12:09.041Z,4.35
2023-03-06T23:14:56.799Z,2.75
2023-03-06T23:17:44.264Z,3.60
2023-03-06T23:20:31.808Z,3.60
2023-03-06T23:23:19.570Z,3.20
2023-03-06T23:25:48.967Z,3.83
2023-03-06T23:28:19.943Z,3.20
2023-03-06T23:30:49.188Z,3.72
2023-03-06T23:33:18.298Z,3.25
2023-03-06T23:35:47.410Z,2.90
2023-03-06T23:38:16.580Z,3.00
2023-03-06T23:40:58.488Z,3.08
2023-03-06T23:43:29.276Z,3.15
2023-03-06T23:45:58.610Z,3.03
2023-03-06T23:48:27.914Z,6.95
2023-03-06T23:50:57.245Z,3.42
2023-03-06T23:53:26.577Z,2.50
2023-03-06T23:55:55.643Z,2.28
2023-03-06T23:58:24.674Z,1.83
